createdAt,value
2023-05-10T00:02:17.582Z,2.93
2023-05-10T00:05:19.459Z,2.40
2023-05-10T00:08:21.134Z,2.33
2023-05-10T00:11:23.227Z,2.37
2023-05-10T00:14:25.233Z,2.57
2023-05-10T00:17:26.951Z,3.03
2023-05-10T00:20:28.832Z,2.90
2023-05-10T00:23:30.514Z,3.47
2023-05-10T00:26:32.383Z,3.10
2023-05-10T00:29:34.719Z,3.10
2023-05-10T00:32:36.454Z,3.37
2023-05-10T00:35:38.893Z,3.17
2023-05-10T00:38:41.350Z,3.83
2023-05-10T00:41:43.019Z,4.43
2023-05-10T00:44:44.816Z,4.70
2023-05-10T00:47:46.786Z,4.10
2023-05-10T00:50:48.869Z,4.90
2023-05-10T00:53:51.957Z,4.63
2023-05-10T00:56:54.063Z,4.43
2023-05-10T00:59:55.875Z,4.77
2023-05-10T01:02:57.884Z,4.43
2023-05-10T01:05:59.703Z,4.80
2023-05-10T01:09:01.512Z,4.20
2023-05-10T01:12:04.489Z,4.10
2023-05-10T01:15:10.578Z,4.13
2023-05-10T01:18:13.651Z,3.63
2023-05-10T01:21:24.318Z,2.73
2023-05-10T01:25:03.427Z,2.97
2023-05-10T01:28:29.342Z,2.30
2023-05-10T01:31:52.485Z,2.57
2023-05-10T01:35:09.110Z,2.67
2023-05-10T01:38:31.274Z,2.97
2023-05-10T01:41:42.764Z,2.47
2023-05-10T01:44:56.565Z,1.80
2023-05-10T01:48:11.957Z,1.90
2023-05-10T01:51:17.847Z,2.57
2023-05-10T01:54:22.735Z,2.23
2023-05-10T01:57:28.556Z,2.23
2023-05-10T02:00:32.234Z,2.23
2023-05-10T02:03:36.552Z,1.93
2023-05-10T02:06:40.403Z,2.00
2023-05-10T02:09:48.372Z,2.13
2023-05-10T02:12:51.725Z,2.50
2023-05-10T02:15:55.649Z,2.30
2023-05-10T02:19:00.051Z,2.30
2023-05-10T02:22:04.014Z,2.13
2023-05-10T02:25:09.964Z,2.40
2023-05-10T02:28:14.086Z,1.87
2023-05-10T02:31:16.928Z,1.40
2023-05-10T02:34:19.721Z,1.50
2023-05-10T02:37:22.759Z,1.53
2023-05-10T02:40:28.677Z,1.60
2023-05-10T02:43:34.348Z,1.90
2023-05-10T02:46:38.133Z,1.40
2023-05-10T02:49:40.372Z,1.90
2023-05-10T02:52:48.131Z,2.07
2023-05-10T02:55:53.740Z,1.60
2023-05-10T02:58:56.693Z,1.40
2023-05-10T03:01:58.658Z,1.60
2023-05-10T03:05:00.698Z,1.90
2023-05-10T03:08:05.143Z,1.87
2023-05-10T03:11:51.001Z,1.60
2023-05-10T03:15:05.811Z,1.90
2023-05-10T03:18:16.277Z,1.87
2023-05-10T03:21:19.665Z,1.47
2023-05-10T03:24:28.341Z,2.00
2023-05-10T03:27:34.914Z,2.40
2023-05-10T03:30:37.811Z,2.70
2023-05-10T03:33:50.716Z,2.80
2023-05-10T03:36:57.654Z,3.10
2023-05-10T03:40:00.980Z,3.90
2023-05-10T03:43:04.321Z,4.67
2023-05-10T03:46:06.707Z,4.63
2023-05-10T03:49:09.389Z,4.77
2023-05-10T03:52:12.936Z,4.73
2023-05-10T03:55:15.375Z,5.20
2023-05-10T03:58:17.326Z,5.67
2023-05-10T04:01:19.228Z,6.97
2023-05-10T04:04:22.879Z,7.80
2023-05-10T04:07:25.353Z,8.73
2023-05-10T04:10:27.517Z,9.97
2023-05-10T04:13:29.669Z,9.20
2023-05-10T04:16:31.817Z,9.97
2023-05-10T04:19:34.454Z,10.97
2023-05-10T04:22:36.455Z,11.97
2023-05-10T04:25:38.301Z,11.57
2023-05-10T04:28:40.164Z,11.03
2023-05-10T04:31:41.978Z,11.37
2023-05-10T04:34:44.639Z,12.63
2023-05-10T04:37:46.447Z,13.43
2023-05-10T04:40:48.340Z,13.37
2023-05-10T04:43:50.541Z,13.07
2023-05-10T04:46:52.395Z,13.63
2023-05-10T04:49:54.227Z,13.77
2023-05-10T04:52:56.047Z,14.43
2023-05-10T04:55:57.922Z,14.63
2023-05-10T04:58:59.835Z,16.00
2023-05-10T05:02:02.081Z,15.47
2023-05-10T05:05:04.339Z,15.83
2023-05-10T05:08:06.384Z,15.97
2023-05-10T05:11:08.278Z,15.77
2023-05-10T05:14:10.065Z,15.50
2023-05-10T05:17:11.926Z,16.73
2023-05-10T05:20:14.135Z,16.63
2023-05-10T05:23:16.062Z,16.53
2023-05-10T05:26:17.966Z,19.30
2023-05-10T05:29:19.845Z,20.93
2023-05-10T05:32:21.875Z,22.20
2023-05-10T05:35:23.850Z,19.17
2023-05-10T05:38:25.713Z,19.20
2023-05-10T05:41:27.508Z,19.50
2023-05-10T05:44:29.867Z,19.93
2023-05-10T05:47:31.744Z,20.80
2023-05-10T05:50:33.644Z,20.10
2023-05-10T05:53:35.525Z,19.20
2023-05-10T05:56:38.436Z,19.43
2023-05-10T05:59:44.664Z,18.17
2023-05-10T06:02:46.706Z,18.70
2023-05-10T06:05:48.725Z,18.20
2023-05-10T06:08:50.638Z,17.20
2023-05-10T06:11:52.568Z,17.23
2023-05-10T06:14:54.363Z,16.87
2023-05-10T06:17:56.588Z,18.03
2023-05-10T06:20:58.470Z,17.60
2023-05-10T06:24:00.312Z,17.83
2023-05-10T06:27:03.105Z,18.30
2023-05-10T06:30:12.977Z,18.10
2023-05-10T06:33:16.942Z,16.77
2023-05-10T06:36:18.852Z,17.87
2023-05-10T06:39:20.832Z,18.40
2023-05-10T06:42:22.625Z,20.00
2023-05-10T06:45:24.457Z,19.67
2023-05-10T06:48:26.321Z,19.53
2023-05-10T06:51:28.222Z,20.33
2023-05-10T06:54:30.035Z,20.53
2023-05-10T06:57:32.418Z,21.97
2023-05-10T07:00:34.408Z,19.80
2023-05-10T07:03:36.503Z,21.37
2023-05-10T07:06:38.384Z,21.97
2023-05-10T07:09:40.219Z,20.23
2023-05-10T07:12:42.145Z,21.17
2023-05-10T07:15:44.043Z,21.17
2023-05-10T07:18:45.911Z,19.50
2023-05-10T07:21:47.749Z,18.77
2023-05-10T07:24:49.931Z,19.63
2023-05-10T07:27:52.641Z,18.13
2023-05-10T07:30:54.628Z,18.00
2023-05-10T07:33:56.501Z,17.97
2023-05-10T07:36:59.962Z,16.50
2023-05-10T07:40:01.759Z,17.10
2023-05-10T07:43:03.764Z,18.83
2023-05-10T07:46:06.291Z,18.53
2023-05-10T07:49:08.174Z,18.00
2023-05-10T07:52:09.984Z,18.13
2023-05-10T07:55:11.940Z,18.23
2023-05-10T07:58:13.662Z,17.07
2023-05-10T08:01:15.488Z,18.03
2023-05-10T08:04:17.325Z,16.00
2023-05-10T08:07:19.175Z,16.83
2023-05-10T08:10:21.107Z,17.23
2023-05-10T08:13:22.997Z,16.60
2023-05-10T08:16:24.817Z,16.30
2023-05-10T08:19:26.718Z,17.40
2023-05-10T08:22:28.649Z,17.20
2023-05-10T08:25:30.607Z,16.67
2023-05-10T08:28:32.454Z,18.17
2023-05-10T08:31:34.311Z,17.30
2023-05-10T08:34:36.116Z,17.47
2023-05-10T08:37:38.102Z,17.40
2023-05-10T08:40:43.225Z,15.97
2023-05-10T08:43:47.097Z,15.87
2023-05-10T08:46:54.641Z,15.90
2023-05-10T08:49:58.086Z,14.37
2023-05-10T08:53:03.362Z,13.57
2023-05-10T08:56:05.748Z,14.03
2023-05-10T08:59:08.002Z,14.73
2023-05-10T09:02:12.667Z,14.67
2023-05-10T09:05:17.041Z,15.30
2023-05-10T09:08:19.643Z,16.03
2023-05-10T09:11:22.008Z,15.63
2023-05-10T09:14:25.444Z,14.63
2023-05-10T09:17:29.959Z,17.00
2023-05-10T09:20:32.110Z,15.97
2023-05-10T09:23:34.034Z,15.83
2023-05-10T09:26:37.272Z,16.00
2023-05-10T09:29:43.987Z,16.90
2023-05-10T09:32:47.596Z,16.93
2023-05-10T09:35:53.178Z,15.30
2023-05-10T09:38:55.060Z,15.80
2023-05-10T09:41:56.982Z,16.40
2023-05-10T09:45:06.017Z,15.67
2023-05-10T09:48:08.052Z,15.50
2023-05-10T09:51:10.013Z,14.13
2023-05-10T09:54:14.973Z,14.33
2023-05-10T09:57:22.907Z,14.27
2023-05-10T10:00:25.039Z,13.37
2023-05-10T10:03:28.388Z,13.30
2023-05-10T10:06:40.454Z,14.83
2023-05-10T10:09:42.350Z,13.00
2023-05-10T10:12:45.633Z,14.20
2023-05-10T10:15:52.054Z,15.20
2023-05-10T10:18:54.203Z,13.87
2023-05-10T10:21:56.362Z,14.07
2023-05-10T10:24:58.646Z,14.07
2023-05-10T10:28:37.063Z,13.63
2023-05-10T10:32:22.709Z,14.13
2023-05-10T10:35:24.625Z,13.33
2023-05-10T10:38:26.683Z,12.30
2023-05-10T10:41:36.535Z,13.63
2023-05-10T10:44:39.426Z,12.60
2023-05-10T10:47:41.371Z,13.43
2023-05-10T10:50:47.754Z,13.63
2023-05-10T10:53:49.871Z,13.07
2023-05-10T10:57:17.404Z,13.47
2023-05-10T11:00:29.549Z,13.03
2023-05-10T11:03:31.392Z,13.63
2023-05-10T11:06:35.165Z,14.57
2023-05-10T11:09:41.437Z,13.03
2023-05-10T11:13:12.528Z,13.27
2023-05-10T11:16:25.457Z,13.27
2023-05-10T11:19:29.327Z,13.67
2023-05-10T11:22:51.996Z,11.03
2023-05-10T11:25:54.967Z,11.17
2023-05-10T11:28:56.847Z,11.50
2023-05-10T11:32:00.257Z,11.27
2023-05-10T11:35:08.624Z,10.93
2023-05-10T11:38:12.144Z,10.97
2023-05-10T11:41:14.664Z,10.03
2023-05-10T11:44:16.924Z,10.90
2023-05-10T11:47:18.857Z,11.50
2023-05-10T11:50:20.716Z,9.13
2023-05-10T11:53:23.722Z,10.73
2023-05-10T11:56:27.548Z,10.50
2023-05-10T11:59:29.509Z,8.97
2023-05-10T12:02:31.564Z,9.33
2023-05-10T12:05:35.048Z,9.03
2023-05-10T12:08:36.848Z,9.20
2023-05-10T12:11:44.590Z,8.43
2023-05-10T12:14:51.666Z,9.27
2023-05-10T12:17:53.604Z,9.80
2023-05-10T12:20:55.994Z,9.23
2023-05-10T12:24:04.870Z,8.23
2023-05-10T12:27:09.263Z,8.70
2023-05-10T12:30:12.266Z,7.97
2023-05-10T12:33:17.998Z,7.97
2023-05-10T12:36:24.743Z,7.87
2023-05-10T12:39:26.693Z,7.97
2023-05-10T12:42:28.623Z,9.03
2023-05-10T12:45:30.562Z,8.63
2023-05-10T12:48:32.730Z,8.60
2023-05-10T12:51:34.546Z,9.63
2023-05-10T12:54:36.550Z,9.00
2023-05-10T12:57:38.322Z,9.63
2023-05-10T13:00:40.138Z,8.67
2023-05-10T13:03:46.653Z,8.97
2023-05-10T13:06:48.435Z,9.90
2023-05-10T13:09:50.328Z,8.77
2023-05-10T13:12:52.334Z,8.40
2023-05-10T13:15:54.163Z,9.17
2023-05-10T13:18:55.977Z,8.60
2023-05-10T13:21:57.853Z,8.80
2023-05-10T13:24:59.664Z,8.87
2023-05-10T13:28:01.482Z,9.67
2023-05-10T13:31:03.489Z,9.50
2023-05-10T13:34:06.481Z,8.70
2023-05-10T13:37:08.332Z,8.97
2023-05-10T13:40:11.944Z,9.40
2023-05-10T13:43:13.726Z,8.17
2023-05-10T13:46:15.580Z,9.33
2023-05-10T13:49:17.459Z,10.50
2023-05-10T13:52:19.285Z,9.57
2023-05-10T13:55:21.181Z,10.53
2023-05-10T13:58:23.012Z,9.40
2023-05-10T14:01:25.044Z,8.57
2023-05-10T14:04:26.936Z,9.67
2023-05-10T14:07:28.785Z,9.53
2023-05-10T14:10:31.245Z,9.80
2023-05-10T14:13:33.791Z,10.63
2023-05-10T14:16:35.929Z,9.67
2023-05-10T14:19:37.766Z,9.93
2023-05-10T14:22:39.524Z,10.10
2023-05-10T14:25:41.694Z,9.53
2023-05-10T14:28:43.555Z,9.90
2023-05-10T14:31:45.466Z,9.27
2023-05-10T14:34:47.375Z,9.20
2023-05-10T14:37:49.295Z,8.30
2023-05-10T14:40:51.096Z,8.73
2023-05-10T14:43:53.548Z,8.27
2023-05-10T14:46:56.712Z,8.37
2023-05-10T14:49:59.182Z,6.60
2023-05-10T14:53:01.018Z,5.63
2023-05-10T14:56:03.837Z,4.50
2023-05-10T14:59:05.753Z,5.30
2023-05-10T15:02:09.345Z,4.90
2023-05-10T15:05:13.135Z,5.33
2023-05-10T15:08:15.870Z,5.90
2023-05-10T15:11:17.666Z,5.57
2023-05-10T15:14:19.483Z,5.43
2023-05-10T15:17:21.443Z,4.57
2023-05-10T15:20:23.330Z,3.30
2023-05-10T15:23:25.242Z,3.37
2023-05-10T15:26:27.228Z,3.73
2023-05-10T15:29:29.023Z,3.83
2023-05-10T15:32:31.066Z,4.40
2023-05-10T15:35:33.272Z,4.37
2023-05-10T15:38:35.128Z,5.10
2023-05-10T15:41:37.134Z,5.40
2023-05-10T15:44:39.446Z,5.03
2023-05-10T15:47:41.378Z,4.60
2023-05-10T15:50:43.190Z,5.30
2023-05-10T15:54:00.443Z,4.97
2023-05-10T15:57:07.904Z,5.30
2023-05-10T16:00:11.230Z,4.90
2023-05-10T16:03:16.245Z,4.97
2023-05-10T16:06:18.395Z,4.67
2023-05-10T16:09:20.373Z,5.30
2023-05-10T16:12:22.280Z,4.80
2023-05-10T16:15:24.099Z,4.63
2023-05-10T16:18:26.197Z,4.93
2023-05-10T16:21:29.794Z,4.57
2023-05-10T16:24:31.597Z,4.77
2023-05-10T16:27:33.611Z,4.60
2023-05-10T16:30:35.906Z,5.53
2023-05-10T16:33:37.782Z,5.10
2023-05-10T16:36:39.554Z,5.33
2023-05-10T16:39:41.454Z,5.40
2023-05-10T16:42:43.731Z,5.77
2023-05-10T16:45:45.509Z,5.83
2023-05-10T16:48:47.318Z,4.97
2023-05-10T16:51:49.089Z,5.90
2023-05-10T16:54:50.883Z,6.20
2023-05-10T16:57:52.660Z,5.37
2023-05-10T17:00:55.184Z,5.57
2023-05-10T17:03:57.266Z,6.30
2023-05-10T17:06:59.163Z,6.03
2023-05-10T17:10:00.920Z,6.00
2023-05-10T17:13:03.036Z,6.53
2023-05-10T17:16:05.120Z,6.87
2023-05-10T17:19:07.174Z,6.13
2023-05-10T17:22:10.008Z,5.90
2023-05-10T17:25:11.943Z,6.27
2023-05-10T17:28:13.754Z,5.77
2023-05-10T17:31:15.823Z,4.93
2023-05-10T17:34:17.674Z,4.17
2023-05-10T17:37:19.453Z,4.70
2023-05-10T17:40:21.368Z,3.47
2023-05-10T17:43:23.465Z,2.90
2023-05-10T17:46:25.459Z,2.70
2023-05-10T17:49:28.727Z,2.80
2023-05-10T17:52:32.801Z,2.93
2023-05-10T17:55:35.386Z,3.07
2023-05-10T17:58:38.356Z,4.47
2023-05-10T18:01:41.444Z,4.13
2023-05-10T18:04:43.606Z,4.30
2023-05-10T18:07:45.530Z,4.77
2023-05-10T18:10:47.304Z,4.50
2023-05-10T18:13:49.116Z,4.67
2023-05-10T18:16:50.945Z,4.63
2023-05-10T18:19:52.773Z,4.37
2023-05-10T18:22:55.832Z,4.70
2023-05-10T18:25:58.091Z,4.93
2023-05-10T18:29:01.588Z,5.40
2023-05-10T18:32:03.675Z,5.03
2023-05-10T18:35:06.848Z,6.63
2023-05-10T18:38:09.828Z,5.60
2023-05-10T18:41:13.436Z,5.80
2023-05-10T18:44:15.318Z,5.00
2023-05-10T18:47:17.290Z,5.13
2023-05-10T18:50:19.705Z,6.50
2023-05-10T18:53:22.413Z,5.77
2023-05-10T18:56:24.242Z,6.43
2023-05-10T18:59:27.959Z,6.20
2023-05-10T19:02:29.700Z,5.93
2023-05-10T19:05:31.598Z,6.50
2023-05-10T19:08:33.994Z,7.03
2023-05-10T19:11:35.951Z,6.50
2023-05-10T19:14:37.809Z,6.10
2023-05-10T19:17:42.029Z,7.13
2023-05-10T19:20:46.528Z,7.37
2023-05-10T19:23:48.865Z,7.23
2023-05-10T19:26:51.264Z,7.47
2023-05-10T19:29:53.148Z,6.90
2023-05-10T19:32:56.271Z,7.47
2023-05-10T19:35:58.248Z,8.50
2023-05-10T19:39:00.221Z,8.33
2023-05-10T19:42:02.087Z,7.70
2023-05-10T19:45:04.049Z,7.13
2023-05-10T19:48:06.328Z,8.17
2023-05-10T19:51:10.239Z,9.17
2023-05-10T19:54:13.779Z,7.90
2023-05-10T19:57:15.652Z,9.30
2023-05-10T20:00:17.813Z,8.17
2023-05-10T20:03:19.536Z,7.93
2023-05-10T20:06:21.314Z,9.30
2023-05-10T20:09:23.137Z,8.27
2023-05-10T20:12:24.925Z,8.70
2023-05-10T20:15:28.542Z,9.90
2023-05-10T20:18:30.464Z,8.97
2023-05-10T20:21:33.484Z,9.07
2023-05-10T20:24:36.116Z,8.77
2023-05-10T20:27:38.163Z,8.67
2023-05-10T20:30:40.821Z,8.77
2023-05-10T20:33:42.632Z,9.90
2023-05-10T20:36:44.460Z,8.90
2023-05-10T20:39:47.452Z,8.27
2023-05-10T20:42:53.820Z,8.70
2023-05-10T20:45:56.075Z,9.07
2023-05-10T20:48:57.927Z,9.47
2023-05-10T20:51:59.704Z,8.93
2023-05-10T20:55:01.872Z,8.67
2023-05-10T20:58:05.163Z,9.33
2023-05-10T21:01:07.271Z,9.83
2023-05-10T21:04:09.150Z,9.27
2023-05-10T21:07:10.956Z,9.27
2023-05-10T21:10:12.820Z,8.37
2023-05-10T21:13:14.784Z,8.53
2023-05-10T21:16:16.613Z,9.57
2023-05-10T21:19:19.066Z,8.67
2023-05-10T21:22:21.988Z,8.87
2023-05-10T21:25:23.796Z,9.30
2023-05-10T21:28:25.720Z,9.67
2023-05-10T21:31:27.549Z,10.03
2023-05-10T21:34:29.412Z,10.23
2023-05-10T21:37:31.240Z,8.80
2023-05-10T21:40:33.006Z,8.93
2023-05-10T21:43:34.878Z,8.90
2023-05-10T21:46:36.767Z,9.53
2023-05-10T21:49:38.763Z,9.60
2023-05-10T21:52:40.624Z,9.17
2023-05-10T21:55:42.409Z,9.70
2023-05-10T21:58:44.245Z,9.93
2023-05-10T22:01:46.061Z,9.73
2023-05-10T22:04:47.930Z,10.43
2023-05-10T22:07:49.616Z,11.63
2023-05-10T22:10:52.000Z,10.17
2023-05-10T22:13:53.698Z,10.70
2023-05-10T22:16:55.540Z,9.27
2023-05-10T22:19:57.502Z,9.57
2023-05-10T22:22:59.216Z,9.70
2023-05-10T22:26:04.199Z,10.67
2023-05-10T22:29:05.935Z,9.93
2023-05-10T22:32:07.653Z,11.63
2023-05-10T22:35:09.596Z,10.33
2023-05-10T22:38:11.396Z,12.33
2023-05-10T22:41:13.127Z,11.77
2023-05-10T22:44:14.869Z,12.07
2023-05-10T22:47:16.599Z,11.97
2023-05-10T22:50:18.825Z,11.80
2023-05-10T22:53:20.912Z,12.40
2023-05-10T22:56:22.762Z,12.53
2023-05-10T22:59:24.453Z,12.40
2023-05-10T23:02:26.274Z,12.40
2023-05-10T23:05:28.212Z,13.13
2023-05-10T23:08:29.915Z,12.23
2023-05-10T23:11:31.587Z,13.33
2023-05-10T23:14:33.329Z,11.33
2023-05-10T23:17:35.059Z,11.30
2023-05-10T23:20:36.714Z,11.07
2023-05-10T23:23:38.459Z,12.03
2023-05-10T23:26:40.425Z,12.63
2023-05-10T23:29:42.127Z,11.90
2023-05-10T23:32:43.897Z,12.07
2023-05-10T23:35:45.926Z,12.43
2023-05-10T23:38:47.570Z,12.83
2023-05-10T23:41:49.518Z,13.23
2023-05-10T23:44:52.272Z,12.87
2023-05-10T23:47:53.988Z,13.83
2023-05-10T23:50:55.831Z,12.33
2023-05-10T23:53:57.524Z,13.47
2023-05-10T23:56:59.243Z,13.33
